createdAt,value
2019-01-02T00:00:30.899Z,0
2019-01-02T00:01:42.422Z,0
2019-01-02T00:02:52.791Z,0
2019-01-02T00:04:02.919Z,0
2019-01-02T00:05:13.846Z,0
2019-01-02T00:06:24.899Z,0
2019-01-02T00:07:35.212Z,0
2019-01-02T00:08:45.375Z,0
2019-01-02T00:09:56.503Z,0
2019-01-02T00:11:07.441Z,0
2019-01-02T00:12:17.962Z,0
2019-01-02T00:13:27.812Z,0
2019-01-02T00:14:38.928Z,0
2019-01-02T00:15:49.371Z,0
2019-01-02T00:16:59.697Z,0
2019-01-02T00:18:09.529Z,0
2019-01-02T00:19:20.817Z,0
2019-01-02T00:20:31.259Z,0
2019-01-02T00:21:41.366Z,0
2019-01-02T00:22:51.476Z,0
2019-01-02T00:24:02.703Z,0
2019-01-02T00:25:13.004Z,0
2019-01-02T00:26:23.096Z,0
2019-01-02T00:27:33.707Z,0
2019-01-02T00:28:45.065Z,0
2019-01-02T00:29:55.488Z,0
2019-01-02T00:31:05.588Z,0
2019-01-02T00:32:16.957Z,0
2019-01-02T00:33:27.672Z,0
2019-01-02T00:34:37.789Z,0
2019-01-02T00:35:47.885Z,0
2019-01-02T00:36:59.179Z,0
2019-01-02T00:38:09.543Z,0
2019-01-02T00:39:19.394Z,0
2019-01-02T00:40:30.482Z,0
2019-01-02T00:41:40.980Z,0
2019-01-02T00:42:51.341Z,0
2019-01-02T00:44:01.459Z,0
2019-01-02T00:45:12.689Z,0
2019-01-02T00:46:23.151Z,0
2019-01-02T00:47:33.236Z,0
2019-01-02T00:48:43.073Z,0
2019-01-02T00:49:54.541Z,0
2019-01-02T00:51:04.958Z,0
2019-01-02T00:52:15.064Z,0
2019-01-02T00:53:26.338Z,0
2019-01-02T00:54:36.801Z,0
2019-01-02T00:55:46.895Z,0
2019-01-02T00:56:57.680Z,0
2019-01-02T00:58:08.743Z,0
2019-01-02T00:59:19.176Z,0
2019-01-02T01:00:29.038Z,0
2019-01-02T01:01:40.209Z,0
2019-01-02T01:02:51.802Z,0
2019-01-02T01:04:02.046Z,0
2019-01-02T01:05:13.475Z,0
2019-01-02T01:06:23.930Z,0
2019-01-02T01:07:34.039Z,0
2019-01-02T01:08:44.576Z,0
2019-01-02T01:09:55.388Z,0
2019-01-02T01:11:05.581Z,0
2019-01-02T01:12:15.670Z,0
2019-01-02T01:13:26.595Z,0
2019-01-02T01:14:37.057Z,0
2019-01-02T01:15:46.889Z,0
2019-01-02T01:16:57.979Z,0
2019-01-02T01:18:08.361Z,0
2019-01-02T01:19:18.731Z,0
2019-01-02T01:20:28.668Z,0
2019-01-02T01:21:39.841Z,0
2019-01-02T01:22:50.327Z,0
2019-01-02T01:24:01.764Z,0
2019-01-02T01:25:11.855Z,0
2019-01-02T01:26:22.875Z,0
2019-01-02T01:27:33.324Z,0
2019-01-02T01:28:43.675Z,0
2019-01-02T01:29:53.774Z,0
2019-01-02T01:31:04.293Z,0
2019-01-02T01:32:15.233Z,0
2019-01-02T01:33:25.669Z,0
2019-01-02T01:34:35.782Z,0
2019-01-02T01:35:45.608Z,0
2019-01-02T01:36:56.914Z,0
2019-01-02T01:38:07.047Z,0
2019-01-02T01:39:17.100Z,0
2019-01-02T01:40:27.198Z,0
2019-01-02T01:41:38.393Z,0
2019-01-02T01:42:48.765Z,0
2019-01-02T01:43:59.105Z,0
2019-01-02T01:45:09.188Z,0
2019-01-02T01:46:20.239Z,0
2019-01-02T01:47:30.232Z,0
2019-01-02T01:48:40.325Z,0
2019-01-02T01:49:50.448Z,0
2019-01-02T01:51:00.849Z,0
2019-01-02T01:52:11.602Z,0
2019-01-02T01:53:21.508Z,0
2019-01-02T01:54:31.087Z,0
2019-01-02T01:55:41.240Z,0
2019-01-02T01:56:52.323Z,0
2019-01-02T01:58:03.591Z,0
2019-01-02T01:59:13.463Z,0
2019-01-02T02:00:23.922Z,0
2019-01-02T02:01:35.087Z,0
2019-01-02T02:02:45.248Z,0
2019-01-02T02:03:55.343Z,0
2019-01-02T02:05:05.484Z,0
2019-01-02T02:06:16.775Z,0
2019-01-02T02:07:27.529Z,0
2019-01-02T02:08:37.812Z,0
2019-01-02T02:09:47.951Z,0
2019-01-02T02:10:58.834Z,0
2019-01-02T02:12:10.089Z,0
2019-01-02T02:13:20.552Z,0
2019-01-02T02:14:30.725Z,0
2019-01-02T02:15:40.841Z,0
2019-01-02T02:16:51.895Z,0
2019-01-02T02:18:02.017Z,0
2019-01-02T02:19:11.876Z,0
2019-01-02T02:20:21.958Z,0
2019-01-02T02:21:33.109Z,0
2019-01-02T02:22:43.235Z,0
2019-01-02T02:23:53.325Z,0
2019-01-02T02:25:03.225Z,0
2019-01-02T02:26:14.246Z,0
2019-01-02T02:27:24.755Z,0
2019-01-02T02:28:34.844Z,0
2019-01-02T02:29:44.952Z,0
2019-01-02T02:30:55.873Z,0
2019-01-02T02:32:06.032Z,0
2019-01-02T02:33:16.905Z,0
2019-01-02T02:34:28.270Z,0
2019-01-02T02:35:39.606Z,0
2019-01-02T02:36:50.723Z,0
2019-01-02T02:38:01.176Z,0
2019-01-02T02:39:12.453Z,0
2019-01-02T02:40:22.553Z,0
2019-01-02T02:41:34.018Z,0
2019-01-02T02:42:45.528Z,0
2019-01-02T02:43:56.350Z,0
2019-01-02T02:45:07.986Z,0
2019-01-02T02:46:18.711Z,0
2019-01-02T02:47:29.514Z,0
2019-01-02T02:48:40.897Z,0
2019-01-02T02:49:51.073Z,0
2019-01-02T02:51:02.306Z,0
2019-01-02T02:52:12.391Z,0
2019-01-02T02:53:23.793Z,0
2019-01-02T02:54:33.922Z,0
2019-01-02T02:55:44.858Z,0
2019-01-02T02:56:56.283Z,0
2019-01-02T02:58:06.508Z,0
2019-01-02T02:59:17.853Z,0
2019-01-02T03:00:28.614Z,0
2019-01-02T03:01:39.990Z,0
2019-01-02T03:34:32.277Z,0
2019-01-02T03:35:42.342Z,0
2019-01-02T03:36:52.122Z,0
2019-01-02T03:38:01.958Z,0
2019-01-02T03:39:12.014Z,0
2019-01-02T03:40:22.079Z,0
2019-01-02T03:41:31.874Z,0
2019-01-02T03:42:41.931Z,0
2019-01-02T03:43:52.078Z,0
2019-01-02T03:45:02.139Z,0
2019-01-02T03:46:12.234Z,0
2019-01-02T03:47:21.788Z,0
2019-01-02T03:48:31.574Z,0
2019-01-02T03:49:41.665Z,0
2019-01-02T03:50:51.456Z,0
2019-01-02T03:52:01.508Z,0
2019-01-02T03:53:11.307Z,0
2019-01-02T03:54:21.113Z,0
2019-01-02T03:55:31.220Z,0
2019-01-02T03:56:41.305Z,0
2019-01-02T03:57:51.423Z,0
2019-01-02T03:59:01.486Z,0
2019-01-02T04:00:12.358Z,0
2019-01-02T04:01:22.415Z,0
2019-01-02T04:02:32.466Z,0
2019-01-02T04:03:42.322Z,0
2019-01-02T04:04:52.381Z,0
2019-01-02T04:06:02.447Z,0
2019-01-02T04:07:12.493Z,0
2019-01-02T04:08:22.028Z,0
2019-01-02T04:09:32.208Z,0
2019-01-02T04:10:43.064Z,0
2019-01-02T04:11:52.869Z,0
2019-01-02T04:13:02.416Z,0
2019-01-02T04:14:12.229Z,0
2019-01-02T04:15:22.296Z,0
2019-01-02T04:16:32.370Z,0
2019-01-02T04:17:42.171Z,0
2019-01-02T04:18:52.239Z,0
2019-01-02T04:20:02.297Z,0
2019-01-02T04:21:12.389Z,0
2019-01-02T04:22:22.200Z,0
2019-01-02T04:23:31.985Z,0
2019-01-02T04:24:42.034Z,0
2019-01-02T04:25:52.082Z,0
2019-01-02T04:27:02.135Z,0
2019-01-02T04:28:11.958Z,0
2019-01-02T04:29:22.023Z,0
2019-01-02T04:30:32.082Z,0
2019-01-02T04:31:41.878Z,0
2019-01-02T04:32:51.670Z,0
2019-01-02T04:34:01.494Z,0
2019-01-02T04:35:11.555Z,0
2019-01-02T04:36:21.620Z,0
2019-01-02T04:37:31.682Z,0
2019-01-02T04:38:41.227Z,0
2019-01-02T04:39:51.276Z,0
2019-01-02T04:41:01.327Z,0
2019-01-02T04:42:11.128Z,0
2019-01-02T04:43:21.186Z,0
2019-01-02T04:44:31.301Z,0
2019-01-02T04:45:41.348Z,0
2019-01-02T04:46:51.418Z,0
2019-01-02T04:48:01.218Z,0
2019-01-02T04:49:11.276Z,0
2019-01-02T04:50:21.596Z,0
2019-01-02T04:51:31.697Z,0
2019-01-02T04:52:41.522Z,0
2019-01-02T04:53:51.585Z,0
2019-01-02T04:55:01.802Z,0
2019-01-02T04:56:13.130Z,0
2019-01-02T04:57:23.191Z,0
2019-01-02T04:58:33.013Z,0
2019-01-02T04:59:43.066Z,0
2019-01-02T05:00:53.132Z,0
2019-01-02T05:02:03.177Z,0
2019-01-02T05:03:12.962Z,0
2019-01-02T05:04:23.021Z,0
2019-01-02T05:05:33.085Z,0
2019-01-02T05:06:43.146Z,0
2019-01-02T05:07:52.931Z,0
2019-01-02T05:09:03.709Z,0
2019-01-02T05:10:13.843Z,0
2019-01-02T05:11:23.900Z,0
2019-01-02T05:12:33.700Z,0
2019-01-02T05:13:43.815Z,0
2019-01-02T05:14:53.873Z,0
2019-01-02T05:16:03.936Z,0
2019-01-02T05:17:14.002Z,0
2019-01-02T05:18:23.805Z,0
2019-01-02T05:19:33.874Z,0
2019-01-02T05:20:43.686Z,0
2019-01-02T05:21:53.492Z,0
2019-01-02T05:23:03.567Z,0
2019-01-02T05:24:13.364Z,0
2019-01-02T05:25:23.475Z,0
2019-01-02T05:26:33.278Z,0
2019-01-02T05:27:43.327Z,0
2019-01-02T05:28:52.865Z,0
2019-01-02T05:30:02.959Z,0
2019-01-02T05:31:12.515Z,0
2019-01-02T05:32:22.580Z,0
2019-01-02T05:33:32.657Z,0
2019-01-02T05:34:42.739Z,0
2019-01-02T05:35:52.869Z,0
2019-01-02T05:37:04.568Z,0
2019-01-02T05:38:14.684Z,0
2019-01-02T05:39:24.759Z,0
2019-01-02T05:40:34.799Z,0
2019-01-02T05:41:44.602Z,0
2019-01-02T05:42:54.648Z,0
2019-01-02T05:44:04.566Z,0
2019-01-02T05:45:14.626Z,0
2019-01-02T05:46:24.678Z,0
2019-01-02T05:47:35.421Z,0
2019-01-02T05:48:45.532Z,0
2019-01-02T05:49:55.603Z,0
2019-01-02T05:51:05.640Z,0
2019-01-02T05:52:15.705Z,0
2019-01-02T05:53:25.783Z,0
2019-01-02T05:54:35.892Z,0
2019-01-02T05:55:45.999Z,0
2019-01-02T05:56:56.058Z,0
2019-01-02T05:58:06.110Z,0
2019-01-02T05:59:16.190Z,0
2019-01-02T06:00:26.594Z,0
2019-01-02T06:01:36.674Z,0
2019-01-02T06:02:46.740Z,0
2019-01-02T06:03:56.794Z,0
2019-01-02T06:05:06.844Z,0
2019-01-02T06:06:16.923Z,0
2019-01-02T06:07:26.977Z,0
2019-01-02T06:08:36.790Z,0
2019-01-02T06:09:46.587Z,0
2019-01-02T06:10:56.126Z,0
2019-01-02T06:12:06.288Z,0
2019-01-02T06:13:16.340Z,0
2019-01-02T06:14:26.411Z,0
2019-01-02T06:15:36.483Z,0
2019-01-02T06:16:46.552Z,0
2019-01-02T06:17:56.357Z,0
2019-01-02T06:19:06.415Z,0
2019-01-02T06:20:16.487Z,0
2019-01-02T06:21:26.026Z,0
2019-01-02T06:22:35.838Z,0
2019-01-02T06:23:45.885Z,0
2019-01-02T06:24:55.412Z,0
2019-01-02T06:26:05.477Z,0
2019-01-02T06:27:15.531Z,0
2019-01-02T06:28:25.344Z,0
2019-01-02T06:29:35.417Z,0
2019-01-02T06:30:45.486Z,0
2019-01-02T06:31:55.577Z,0
2019-01-02T06:33:05.373Z,0
2019-01-02T06:34:15.189Z,0
2019-01-02T06:35:25.260Z,0
2019-01-02T06:36:36.826Z,0
2019-01-02T06:37:46.384Z,0
2019-01-02T06:38:56.433Z,0
2019-01-02T06:40:06.594Z,0
2019-01-02T06:41:16.858Z,0
2019-01-02T06:42:26.640Z,0
2019-01-02T06:43:36.460Z,0
2019-01-02T06:44:46.272Z,0
2019-01-02T06:45:56.322Z,0
2019-01-02T06:47:06.430Z,0
2019-01-02T06:48:16.507Z,0
2019-01-02T06:49:26.348Z,0
2019-01-02T06:50:36.415Z,0
2019-01-02T06:51:46.465Z,0
2019-01-02T06:52:56.532Z,0
2019-01-02T06:54:06.684Z,0
2019-01-02T06:55:16.501Z,0
2019-01-02T06:56:26.592Z,0
2019-01-02T06:57:36.665Z,0
2019-01-02T06:58:46.710Z,0
2019-01-02T06:59:56.790Z,0
2019-01-02T07:01:06.895Z,0
2019-01-02T07:02:16.698Z,0
2019-01-02T07:03:26.745Z,0
2019-01-02T07:04:36.533Z,0
2019-01-02T07:05:46.601Z,0
2019-01-02T07:06:56.402Z,0
2019-01-02T07:08:05.951Z,0
2019-01-02T07:09:15.746Z,0
2019-01-02T07:10:26.513Z,0
2019-01-02T07:11:36.293Z,5
2019-01-02T07:12:46.375Z,5
2019-01-02T07:13:56.432Z,5
2019-01-02T07:15:06.483Z,5
2019-01-02T07:16:16.291Z,5
2019-01-02T07:17:26.087Z,5
2019-01-02T07:18:36.172Z,5
2019-01-02T07:19:46.214Z,5
2019-01-02T07:20:56.249Z,5
2019-01-02T07:22:06.319Z,5
2019-01-02T07:23:16.113Z,5
2019-01-02T07:24:26.217Z,5
2019-01-02T07:25:36.330Z,5
2019-01-02T07:26:46.400Z,5
2019-01-02T07:27:56.467Z,5
2019-01-02T07:29:06.708Z,5
2019-01-02T07:30:16.766Z,5
2019-01-02T07:31:26.584Z,5
2019-01-02T07:32:36.664Z,10
2019-01-02T07:33:46.210Z,10
2019-01-02T07:34:56.282Z,15
2019-01-02T07:36:06.325Z,15
2019-01-02T07:37:16.138Z,20
2019-01-02T07:38:25.948Z,20
2019-01-02T07:39:36.008Z,15
2019-01-02T07:40:46.054Z,15
2019-01-02T07:41:56.122Z,15
2019-01-02T07:43:06.176Z,25
2019-01-02T07:44:15.991Z,25
2019-01-02T07:45:25.800Z,25
2019-01-02T07:46:35.618Z,25
2019-01-02T07:47:45.430Z,25
2019-01-02T07:48:55.289Z,25
2019-01-02T07:50:05.895Z,30
2019-01-02T07:51:15.695Z,30
2019-01-02T07:52:25.489Z,25
2019-01-02T07:53:35.302Z,25
2019-01-02T07:54:45.359Z,30
2019-01-02T07:55:55.426Z,35
2019-01-02T07:57:05.241Z,35
2019-01-02T07:58:15.303Z,35
2019-01-02T07:59:25.110Z,35
2019-01-02T08:00:34.907Z,30
2019-01-02T08:01:44.709Z,30
2019-01-02T08:02:54.756Z,30
2019-01-02T08:04:04.823Z,30
2019-01-02T08:05:14.643Z,30
2019-01-02T08:06:24.698Z,30
2019-01-02T08:07:34.773Z,30
2019-01-02T08:08:44.831Z,30
2019-01-02T08:09:54.906Z,35
2019-01-02T08:11:04.464Z,35
2019-01-02T08:12:14.531Z,35
2019-01-02T08:13:24.064Z,40
2019-01-02T08:14:33.881Z,40
2019-01-02T08:15:43.959Z,40
2019-01-02T08:16:54.022Z,40
2019-01-02T08:18:04.086Z,40
2019-01-02T08:19:14.212Z,40
2019-01-02T08:20:24.287Z,40
2019-01-02T08:21:37.131Z,40
2019-01-02T08:22:47.209Z,45
2019-01-02T08:23:57.275Z,45
2019-01-02T08:25:07.579Z,45
2019-01-02T08:26:17.756Z,45
2019-01-02T08:27:27.552Z,45
2019-01-02T08:28:37.621Z,45
2019-01-02T08:29:47.696Z,50
2019-01-02T08:30:57.743Z,55
2019-01-02T08:32:09.034Z,55
2019-01-02T08:33:18.567Z,50
2019-01-02T08:34:28.377Z,50
2019-01-02T08:35:38.457Z,45
2019-01-02T08:36:48.252Z,50
2019-01-02T08:37:58.046Z,50
2019-01-02T08:39:08.127Z,55
2019-01-02T08:40:18.188Z,60
2019-01-02T08:41:28.332Z,60
2019-01-02T08:42:38.424Z,60
2019-01-02T08:43:48.227Z,60
2019-01-02T08:44:58.038Z,60
2019-01-02T08:46:07.590Z,60
2019-01-02T08:47:17.646Z,65
2019-01-02T08:48:27.717Z,70
2019-01-02T08:49:37.529Z,70
2019-01-02T08:50:47.583Z,95
2019-01-02T08:51:57.395Z,95
2019-01-02T08:53:07.486Z,110
2019-01-02T08:54:17.556Z,75
2019-01-02T08:55:27.136Z,115
2019-01-02T08:56:37.208Z,105
2019-01-02T08:57:47.263Z,75
2019-01-02T08:58:57.117Z,115
2019-01-02T09:00:07.188Z,115
2019-01-02T09:01:17.241Z,120
2019-01-02T09:02:27.284Z,115
2019-01-02T09:03:37.334Z,115
2019-01-02T09:04:46.632Z,120
2019-01-02T09:05:56.698Z,120
2019-01-02T09:07:06.760Z,120
2019-01-02T09:08:16.826Z,125
2019-01-02T09:09:26.893Z,125
2019-01-02T09:10:37.018Z,125
2019-01-02T09:11:46.803Z,125
2019-01-02T09:12:56.883Z,125
2019-01-02T09:14:07.061Z,130
2019-01-02T09:15:17.432Z,135
2019-01-02T09:16:27.554Z,140
2019-01-02T09:17:37.388Z,120
2019-01-02T09:18:47.454Z,115
2019-01-02T09:19:57.523Z,95
2019-01-02T09:21:07.590Z,80
2019-01-02T09:22:17.392Z,85
2019-01-02T09:23:26.947Z,125
2019-01-02T09:24:36.759Z,100
2019-01-02T09:25:46.843Z,85
2019-01-02T09:26:56.902Z,135
2019-01-02T09:28:06.951Z,135
2019-01-02T09:29:17.033Z,115
2019-01-02T09:30:27.098Z,135
2019-01-02T09:31:37.181Z,135
2019-01-02T09:32:47.251Z,135
2019-01-02T09:34:01.884Z,140
2019-01-02T09:35:11.950Z,135
2019-01-02T09:36:22.016Z,140
2019-01-02T09:37:31.849Z,140
2019-01-02T09:38:41.910Z,135
2019-01-02T09:39:51.987Z,140
2019-01-02T09:41:02.058Z,145
2019-01-02T09:42:11.871Z,145
2019-01-02T09:43:27.127Z,145
2019-01-02T09:44:37.212Z,140
2019-01-02T09:45:47.267Z,140
2019-01-02T09:46:58.789Z,145
2019-01-02T09:48:09.286Z,145
2019-01-02T09:49:19.392Z,140
2019-01-02T09:50:29.482Z,145
2019-01-02T09:51:39.561Z,150
2019-01-02T09:52:49.354Z,160
2019-01-02T09:53:58.665Z,170
2019-01-02T09:55:11.133Z,140
2019-01-02T09:56:21.215Z,140
2019-01-02T09:57:31.268Z,145
2019-01-02T09:58:41.327Z,140
2019-01-02T09:59:51.147Z,155
2019-01-02T10:01:01.244Z,160
2019-01-02T10:02:11.053Z,120
2019-01-02T10:03:20.879Z,120
2019-01-02T10:04:30.712Z,100
2019-01-02T10:05:40.768Z,95
2019-01-02T10:06:50.847Z,75
2019-01-02T10:08:00.930Z,75
2019-01-02T10:09:10.997Z,70
2019-01-02T10:10:20.857Z,70
2019-01-02T10:11:30.916Z,50
2019-01-02T10:12:40.703Z,50
2019-01-02T10:13:50.506Z,45
2019-01-02T10:15:00.044Z,40
2019-01-02T10:16:09.869Z,50
2019-01-02T10:17:19.665Z,55
2019-01-02T10:18:29.716Z,65
2019-01-02T10:19:39.787Z,80
2019-01-02T10:20:53.605Z,85
2019-01-02T10:22:03.659Z,95
2019-01-02T10:23:13.454Z,115
2019-01-02T10:24:23.533Z,125
2019-01-02T10:25:33.596Z,95
2019-01-02T10:26:43.643Z,85
2019-01-02T10:27:53.464Z,85
2019-01-02T10:29:04.628Z,75
2019-01-02T10:30:14.707Z,80
2019-01-02T10:31:24.771Z,85
2019-01-02T10:32:34.966Z,85
2019-01-02T10:33:45.021Z,90
2019-01-02T10:34:54.575Z,85
2019-01-02T10:36:04.633Z,95
2019-01-02T10:37:14.700Z,160
2019-01-02T10:38:24.269Z,105
2019-01-02T10:39:33.824Z,105
2019-01-02T10:40:43.894Z,105
2019-01-02T10:41:53.713Z,105
2019-01-02T10:43:03.509Z,100
2019-01-02T10:44:13.573Z,170
2019-01-02T10:45:23.638Z,110
2019-01-02T10:46:33.716Z,170
2019-01-02T10:47:43.787Z,95
2019-01-02T10:48:53.842Z,95
2019-01-02T10:50:04.845Z,95
2019-01-02T10:51:14.960Z,100
2019-01-02T10:52:25.046Z,175
2019-01-02T10:53:34.848Z,120
2019-01-02T10:54:44.896Z,130
2019-01-02T10:55:54.688Z,185
2019-01-02T10:57:04.506Z,185
2019-01-02T10:58:14.563Z,185
2019-01-02T10:59:24.376Z,185
2019-01-02T11:00:34.465Z,180
2019-01-02T11:01:44.527Z,195
2019-01-02T11:02:54.607Z,180
2019-01-02T11:04:04.681Z,180
2019-01-02T11:05:14.495Z,170
2019-01-02T11:06:24.321Z,150
2019-01-02T11:07:34.275Z,160
2019-01-02T11:08:44.090Z,150
2019-01-02T11:09:55.182Z,170
2019-01-02T11:11:07.703Z,160
2019-01-02T11:12:17.768Z,145
2019-01-02T11:13:27.591Z,140
2019-01-02T11:14:37.434Z,115
2019-01-02T11:15:47.489Z,105
2019-01-02T11:16:57.558Z,95
2019-01-02T11:18:07.633Z,95
2019-01-02T11:19:17.432Z,90
2019-01-02T11:20:27.528Z,90
2019-01-02T11:21:37.605Z,100
2019-01-02T11:22:47.670Z,100
2019-01-02T11:23:57.487Z,100
2019-01-02T11:25:07.562Z,95
2019-01-02T11:26:17.620Z,100
2019-01-02T11:27:27.434Z,105
2019-01-02T11:28:37.495Z,105
2019-01-02T11:29:47.547Z,105
2019-01-02T11:30:57.364Z,110
2019-01-02T11:32:08.174Z,110
2019-01-02T11:33:18.261Z,115
2019-01-02T11:34:28.328Z,120
2019-01-02T11:35:38.164Z,125
2019-01-02T11:36:48.222Z,125
2019-01-02T11:37:58.340Z,130
2019-01-02T11:39:08.412Z,145
2019-01-02T11:40:18.494Z,135
2019-01-02T11:41:28.310Z,130
2019-01-02T11:42:38.383Z,150
2019-01-02T11:43:48.439Z,130
2019-01-02T11:44:58.514Z,115
2019-01-02T11:46:08.578Z,115
2019-01-02T11:47:18.649Z,115
2019-01-02T11:48:28.734Z,115
2019-01-02T11:49:38.788Z,115
2019-01-02T11:50:48.830Z,115
2019-01-02T11:51:58.649Z,115
2019-01-02T11:53:09.270Z,115
2019-01-02T11:54:19.339Z,115
2019-01-02T11:55:29.433Z,130
2019-01-02T11:56:39.501Z,120
2019-01-02T11:57:49.568Z,140
2019-01-02T11:58:59.732Z,155
2019-01-02T12:00:10.391Z,120
2019-01-02T12:01:20.457Z,115
2019-01-02T12:02:36.555Z,110
2019-01-02T12:03:46.610Z,115
2019-01-02T12:04:56.453Z,115
2019-01-02T12:06:06.259Z,115
2019-01-02T12:07:16.082Z,120
2019-01-02T12:08:26.145Z,115
2019-01-02T12:09:36.474Z,110
2019-01-02T12:10:46.541Z,115
2019-01-02T12:11:56.617Z,110
2019-01-02T12:13:07.115Z,120
2019-01-02T12:14:17.323Z,105
2019-01-02T12:15:26.896Z,90
2019-01-02T12:16:36.973Z,90
2019-01-02T12:17:47.047Z,75
2019-01-02T12:18:56.855Z,75
2019-01-02T12:20:06.906Z,75
2019-01-02T12:21:16.697Z,70
2019-01-02T12:22:26.253Z,70
2019-01-02T12:23:36.058Z,65
2019-01-02T12:24:46.126Z,65
2019-01-02T12:25:55.922Z,60
2019-01-02T12:27:05.731Z,65
2019-01-02T12:28:15.811Z,65
2019-01-02T12:29:25.634Z,65
2019-01-02T12:30:35.696Z,65
2019-01-02T12:31:45.501Z,60
2019-01-02T12:32:55.289Z,55
2019-01-02T12:34:05.122Z,50
2019-01-02T12:35:15.242Z,45
2019-01-02T12:36:25.292Z,45
2019-01-02T12:37:35.370Z,45
2019-01-02T12:38:45.423Z,45
2019-01-02T12:39:55.490Z,45
2019-01-02T12:41:05.568Z,50
2019-01-02T12:42:15.383Z,55
2019-01-02T12:43:25.453Z,55
2019-01-02T12:44:35.541Z,60
2019-01-02T12:45:45.639Z,60
2019-01-02T12:46:54.675Z,60
2019-01-02T12:48:04.499Z,65
2019-01-02T12:49:14.582Z,70
2019-01-02T12:50:24.649Z,70
2019-01-02T12:51:34.450Z,70
2019-01-02T12:52:44.528Z,65
2019-01-02T12:53:54.606Z,65
2019-01-02T12:55:04.418Z,65
2019-01-02T12:56:14.523Z,65
2019-01-02T12:57:24.339Z,65
2019-01-02T12:58:34.435Z,65
2019-01-02T12:59:44.512Z,65
2019-01-02T13:00:54.585Z,65
2019-01-02T13:02:04.652Z,60
2019-01-02T13:03:14.754Z,60
2019-01-02T13:04:24.838Z,60
2019-01-02T13:05:36.272Z,60
2019-01-02T13:06:46.458Z,60
2019-01-02T13:07:56.535Z,60
2019-01-02T13:09:06.628Z,55
2019-01-02T13:10:16.696Z,55
2019-01-02T13:11:26.794Z,55
2019-01-02T13:12:36.846Z,55
2019-01-02T13:13:46.914Z,55
2019-01-02T13:14:56.719Z,55
2019-01-02T13:16:06.750Z,50
2019-01-02T13:17:16.865Z,50
2019-01-02T13:18:28.270Z,45
2019-01-02T13:19:38.371Z,45
2019-01-02T13:20:48.185Z,40
2019-01-02T13:21:58.241Z,40
2019-01-02T13:23:08.297Z,35
2019-01-02T13:24:18.353Z,35
2019-01-02T13:25:28.435Z,40
2019-01-02T13:26:38.506Z,35
2019-01-02T13:27:48.581Z,35
2019-01-02T13:28:58.636Z,35
2019-01-02T13:30:08.449Z,30
2019-01-02T13:31:18.511Z,30
2019-01-02T13:32:28.575Z,30
2019-01-02T13:33:38.392Z,25
2019-01-02T13:34:48.468Z,25
2019-01-02T13:35:58.276Z,25
2019-01-02T13:37:08.594Z,20
2019-01-02T13:38:18.653Z,20
2019-01-02T13:39:28.717Z,20
2019-01-02T13:40:38.531Z,20
2019-01-02T13:41:48.613Z,20
2019-01-02T13:42:58.694Z,20
2019-01-02T13:44:08.764Z,15
2019-01-02T13:45:18.842Z,15
2019-01-02T13:46:28.961Z,15
2019-01-02T13:47:38.779Z,20
2019-01-02T13:48:48.580Z,20
2019-01-02T13:49:58.655Z,20
2019-01-02T13:51:09.019Z,20
2019-01-02T13:52:19.093Z,20
2019-01-02T13:53:29.167Z,20
2019-01-02T13:54:39.240Z,15
2019-01-02T13:55:49.330Z,15
2019-01-02T13:56:59.408Z,15
2019-01-02T13:58:09.587Z,15
2019-01-02T13:59:19.649Z,15
2019-01-02T14:00:29.470Z,15
2019-01-02T14:01:39.550Z,15
2019-01-02T14:02:49.637Z,10
2019-01-02T14:03:59.734Z,10
2019-01-02T14:05:09.844Z,10
2019-01-02T14:06:19.915Z,15
2019-01-02T14:07:29.974Z,15
2019-01-02T14:08:40.083Z,15
2019-01-02T14:09:50.153Z,15
2019-01-02T14:10:59.959Z,15
2019-01-02T14:12:10.035Z,15
2019-01-02T14:13:20.099Z,15
2019-01-02T14:14:30.165Z,15
2019-01-02T14:15:39.726Z,15
2019-01-02T14:16:49.789Z,15
2019-01-02T14:17:59.845Z,15
2019-01-02T14:19:09.920Z,15
2019-01-02T14:20:19.782Z,15
2019-01-02T14:21:29.834Z,15
2019-01-02T14:22:39.889Z,15
2019-01-02T14:23:49.700Z,15
2019-01-02T14:24:59.240Z,15
2019-01-02T14:26:09.060Z,15
2019-01-02T14:27:19.124Z,15
2019-01-02T14:28:28.702Z,15
2019-01-02T14:29:38.772Z,10
2019-01-02T14:30:48.300Z,10
2019-01-02T14:31:58.350Z,10
2019-01-02T14:33:08.434Z,10
2019-01-02T14:34:18.507Z,10
2019-01-02T14:35:32.091Z,5
2019-01-02T14:36:42.177Z,5
2019-01-02T14:37:51.976Z,5
2019-01-02T14:39:02.048Z,5
2019-01-02T14:40:12.128Z,5
2019-01-02T14:41:22.202Z,5
2019-01-02T14:42:31.998Z,5
2019-01-02T14:43:42.226Z,5
2019-01-02T14:44:52.031Z,5
2019-01-02T14:46:02.812Z,5
2019-01-02T14:47:12.872Z,5
2019-01-02T14:48:22.980Z,5
2019-01-02T14:49:33.073Z,5
2019-01-02T14:50:43.158Z,5
2019-01-02T14:51:52.979Z,5
2019-01-02T14:53:04.648Z,5
2019-01-02T14:54:14.731Z,0
2019-01-02T14:55:24.601Z,0
2019-01-02T14:56:34.702Z,0
2019-01-02T14:57:44.759Z,0
2019-01-02T14:58:54.827Z,0
2019-01-02T15:00:05.307Z,0
2019-01-02T15:01:14.900Z,0
2019-01-02T15:02:24.729Z,0
2019-01-02T15:03:34.806Z,0
2019-01-02T15:04:44.868Z,0
2019-01-02T15:05:54.941Z,0
2019-01-02T15:07:05.149Z,0
2019-01-02T15:08:15.217Z,0
2019-01-02T15:09:25.043Z,0
2019-01-02T15:10:35.103Z,0
2019-01-02T15:11:45.168Z,0
2019-01-02T15:12:55.255Z,0
2019-01-02T15:14:07.510Z,0
2019-01-02T15:15:17.645Z,0
2019-01-02T15:16:27.443Z,0
2019-01-02T15:17:37.511Z,0
2019-01-02T15:18:47.569Z,0
2019-01-02T15:19:57.637Z,0
2019-01-02T15:21:08.365Z,0
2019-01-02T15:22:18.436Z,0
2019-01-02T15:23:28.514Z,0
2019-01-02T15:24:38.348Z,0
2019-01-02T15:25:48.429Z,0
2019-01-02T15:26:58.494Z,0
2019-01-02T15:28:08.581Z,0
2019-01-02T15:29:18.669Z,0
2019-01-02T15:30:28.487Z,0
2019-01-02T15:31:38.552Z,0
2019-01-02T15:32:48.385Z,0
2019-01-02T15:33:58.194Z,0
2019-01-02T15:35:09.418Z,0
2019-01-02T15:36:19.483Z,0
2019-01-02T15:37:29.571Z,0
2019-01-02T15:38:39.617Z,0
2019-01-02T15:39:49.168Z,0
2019-01-02T15:40:59.235Z,0
2019-01-02T15:42:09.326Z,0
2019-01-02T15:43:19.398Z,0
2019-01-02T15:44:29.502Z,0
2019-01-02T15:45:39.333Z,0
2019-01-02T15:46:49.424Z,0
2019-01-02T15:47:59.533Z,0
2019-01-02T15:49:09.608Z,0
2019-01-02T15:50:19.674Z,0
2019-01-02T15:51:30.545Z,0
2019-01-02T15:52:40.621Z,0
2019-01-02T15:53:50.699Z,0
2019-01-02T15:55:00.751Z,0
2019-01-02T15:56:11.130Z,0
2019-01-02T15:57:21.201Z,0
2019-01-02T15:58:32.554Z,0
2019-01-02T15:59:42.608Z,0
2019-01-02T16:00:52.689Z,0
2019-01-02T16:02:02.521Z,0
2019-01-02T16:03:12.327Z,0
2019-01-02T16:04:22.920Z,0
2019-01-02T16:05:32.708Z,0
2019-01-02T16:06:42.779Z,0
2019-01-02T16:07:52.843Z,0
2019-01-02T16:09:02.723Z,0
2019-01-02T16:10:12.783Z,0
2019-01-02T16:11:22.605Z,0
2019-01-02T16:12:32.734Z,0
2019-01-02T16:13:42.808Z,0
2019-01-02T16:14:52.873Z,0
2019-01-02T16:16:02.933Z,0
2019-01-02T16:17:13.019Z,0
2019-01-02T16:18:23.089Z,0
2019-01-02T16:19:33.186Z,0
2019-01-02T16:20:42.960Z,0
2019-01-02T16:21:52.502Z,0
2019-01-02T16:23:02.568Z,0
2019-01-02T16:24:12.439Z,0
2019-01-02T16:25:22.503Z,0
2019-01-02T16:26:32.640Z,0
2019-01-02T16:27:42.710Z,0
2019-01-02T16:28:52.793Z,0
2019-01-02T16:30:02.932Z,0
2019-01-02T16:31:12.987Z,0
2019-01-02T16:32:23.045Z,0
2019-01-02T16:33:33.096Z,0
2019-01-02T16:34:42.887Z,0
2019-01-02T16:35:53.019Z,0
2019-01-02T16:37:02.830Z,0
2019-01-02T16:38:12.394Z,0
2019-01-02T16:39:22.463Z,0
2019-01-02T16:40:32.529Z,0
2019-01-02T16:41:42.609Z,0
2019-01-02T16:42:52.696Z,0
2019-01-02T16:44:03.208Z,0
2019-01-02T16:45:13.301Z,0
2019-01-02T16:46:22.854Z,0
2019-01-02T16:47:33.014Z,0
2019-01-02T16:48:43.081Z,0
2019-01-02T16:49:53.143Z,0
2019-01-02T16:51:03.625Z,0
2019-01-02T16:52:13.694Z,0
2019-01-02T16:53:23.560Z,0
2019-01-02T16:54:33.648Z,0
2019-01-02T16:55:43.715Z,0
2019-01-02T16:56:53.782Z,0
2019-01-02T16:58:04.606Z,0
2019-01-02T16:59:14.655Z,0
2019-01-02T17:00:24.958Z,0
2019-01-02T17:01:35.054Z,0
2019-01-02T17:02:45.146Z,0
2019-01-02T17:03:55.198Z,0
2019-01-02T17:05:05.305Z,0
2019-01-02T17:06:15.405Z,0
2019-01-02T17:07:25.497Z,0
2019-01-02T17:08:35.573Z,0
2019-01-02T17:09:45.395Z,0
2019-01-02T17:10:55.501Z,0
2019-01-02T17:12:05.591Z,0
2019-01-02T17:13:15.397Z,0
2019-01-02T17:14:25.248Z,0
2019-01-02T17:15:35.338Z,0
2019-01-02T17:16:45.187Z,0
2019-01-02T17:17:55.269Z,0
2019-01-02T17:19:05.708Z,0
2019-01-02T17:20:15.794Z,0
2019-01-02T17:21:25.632Z,0
2019-01-02T17:22:35.495Z,0
2019-01-02T17:23:46.238Z,0
2019-01-02T17:24:56.367Z,0
2019-01-02T17:26:06.481Z,0
2019-01-02T17:27:16.574Z,0